createdAt,value
2023-05-21T00:00:22.153Z,15.20
2023-05-21T00:02:49.211Z,15.20
2023-05-21T00:05:18.168Z,15.20
2023-05-21T00:07:45.825Z,15.20
2023-05-21T00:10:12.685Z,15.10
2023-05-21T00:12:39.452Z,15.00
2023-05-21T00:15:06.656Z,15.00
2023-05-21T00:17:34.127Z,15.00
2023-05-21T00:20:02.074Z,14.90
2023-05-21T00:22:28.704Z,14.90
2023-05-21T00:24:55.337Z,14.80
2023-05-21T00:27:22.016Z,14.90
2023-05-21T00:29:48.644Z,14.70
2023-05-21T00:32:15.546Z,14.70
2023-05-21T00:34:42.337Z,14.70
2023-05-21T00:37:09.933Z,14.60
2023-05-21T00:39:36.952Z,14.60
2023-05-21T00:42:03.974Z,14.70
2023-05-21T00:44:34.475Z,14.50
2023-05-21T00:47:02.160Z,14.60
2023-05-21T00:49:29.607Z,14.50
2023-05-21T00:51:56.949Z,14.50
2023-05-21T00:54:24.219Z,14.40
2023-05-21T00:56:51.213Z,14.40
2023-05-21T00:59:18.281Z,14.30
2023-05-21T01:01:45.777Z,14.40
2023-05-21T01:04:13.109Z,14.30
2023-05-21T01:06:39.726Z,14.40
2023-05-21T01:09:07.135Z,14.40
2023-05-21T01:11:46.343Z,14.50
2023-05-21T01:14:14.996Z,14.50
2023-05-21T01:16:43.981Z,14.60
2023-05-21T01:19:16.633Z,14.60
2023-05-21T01:21:47.268Z,14.50
2023-05-21T01:24:15.183Z,14.50
2023-05-21T01:26:44.002Z,14.40
2023-05-21T01:29:14.095Z,14.50
2023-05-21T01:32:30.858Z,14.40
2023-05-21T01:35:26.181Z,14.30
2023-05-21T01:37:59.290Z,14.20
2023-05-21T01:40:50.250Z,14.20
2023-05-21T01:43:18.052Z,14.20
2023-05-21T01:45:46.242Z,14.30
2023-05-21T01:48:13.502Z,14.40
2023-05-21T01:50:41.843Z,14.40
2023-05-21T01:53:08.470Z,14.30
2023-05-21T01:55:39.353Z,14.40
2023-05-21T01:58:05.975Z,14.20
2023-05-21T02:00:34.557Z,14.30
2023-05-21T02:03:01.316Z,14.30
2023-05-21T02:05:28.018Z,14.30
2023-05-21T02:07:54.868Z,14.20
2023-05-21T02:10:21.805Z,14.20
2023-05-21T02:12:48.473Z,14.20
2023-05-21T02:15:17.803Z,14.10
2023-05-21T02:17:45.025Z,14.10
2023-05-21T02:20:12.374Z,14.10
2023-05-21T02:22:44.614Z,14.10
2023-05-21T02:25:12.642Z,14.10
2023-05-21T02:27:40.634Z,14.10
2023-05-21T02:30:09.066Z,14.10
2023-05-21T02:32:35.908Z,14.10
2023-05-21T02:35:04.221Z,14.00
2023-05-21T02:37:34.944Z,14.00
2023-05-21T02:40:04.333Z,14.10
2023-05-21T02:42:31.447Z,14.10
2023-05-21T02:44:58.189Z,14.10
2023-05-21T02:47:25.582Z,14.10
2023-05-21T02:49:53.298Z,14.10
2023-05-21T02:52:24.004Z,14.10
2023-05-21T02:54:51.484Z,14.00
2023-05-21T02:57:18.318Z,14.00
2023-05-21T02:59:45.922Z,13.90
2023-05-21T03:02:12.723Z,14.00
2023-05-21T03:04:46.165Z,13.80
2023-05-21T03:07:14.607Z,13.80
2023-05-21T03:09:42.374Z,13.80
2023-05-21T03:12:09.546Z,13.80
2023-05-21T03:14:36.596Z,13.80
2023-05-21T03:17:06.947Z,13.80
2023-05-21T03:19:36.978Z,13.90
2023-05-21T03:22:04.453Z,13.90
2023-05-21T03:24:31.754Z,13.90
2023-05-21T03:27:01.427Z,13.90
2023-05-21T03:29:28.421Z,13.90
2023-05-21T03:31:55.574Z,14.00
2023-05-21T03:34:22.388Z,13.90
2023-05-21T03:36:49.864Z,13.90
2023-05-21T03:39:16.662Z,14.00
2023-05-21T03:41:43.384Z,13.90
2023-05-21T03:44:10.068Z,13.90
2023-05-21T03:46:36.785Z,13.90
2023-05-21T03:49:03.602Z,13.90
2023-05-21T03:51:31.647Z,14.00
2023-05-21T03:53:59.182Z,13.80
2023-05-21T03:56:26.371Z,13.80
2023-05-21T03:58:53.163Z,13.90
2023-05-21T04:01:19.928Z,13.90
2023-05-21T04:03:47.195Z,14.00
2023-05-21T04:06:14.008Z,13.90
2023-05-21T04:08:40.670Z,13.90
2023-05-21T04:11:07.398Z,13.90
2023-05-21T04:13:34.035Z,13.80
2023-05-21T04:16:01.037Z,13.90
2023-05-21T04:18:28.014Z,13.90
2023-05-21T04:20:54.809Z,13.80
2023-05-21T04:23:23.430Z,13.80
2023-05-21T04:25:50.732Z,13.90
2023-05-21T04:28:19.961Z,13.80
2023-05-21T04:30:47.484Z,13.80
2023-05-21T04:33:17.845Z,13.90
2023-05-21T04:35:47.118Z,13.80
2023-05-21T04:38:13.981Z,13.90
2023-05-21T04:40:40.782Z,13.90
2023-05-21T04:43:08.093Z,13.90
2023-05-21T04:45:35.245Z,14.00
2023-05-21T04:48:02.685Z,13.90
2023-05-21T04:50:30.715Z,14.00
2023-05-21T04:52:59.498Z,14.00
2023-05-21T04:55:27.329Z,13.90
2023-05-21T04:57:53.975Z,14.00
2023-05-21T05:00:21.481Z,14.00
2023-05-21T05:02:48.164Z,14.00
2023-05-21T05:05:14.900Z,13.90
2023-05-21T05:07:41.649Z,13.90
2023-05-21T05:10:08.586Z,14.00
2023-05-21T05:12:38.159Z,14.00
2023-05-21T05:15:05.171Z,13.90
2023-05-21T05:17:32.088Z,14.00
2023-05-21T05:19:58.847Z,14.10
2023-05-21T05:22:25.593Z,14.10
2023-05-21T05:24:52.212Z,14.00
2023-05-21T05:27:18.889Z,14.10
2023-05-21T05:29:45.567Z,14.10
2023-05-21T05:32:12.365Z,14.10
2023-05-21T05:34:39.036Z,14.10
2023-05-21T05:37:05.833Z,14.10
2023-05-21T05:39:32.463Z,14.20
2023-05-21T05:41:59.158Z,14.20
2023-05-21T05:44:25.829Z,14.30
2023-05-21T05:46:52.541Z,14.30
2023-05-21T05:49:19.166Z,14.20
2023-05-21T05:51:45.849Z,14.30
2023-05-21T05:54:12.643Z,14.40
2023-05-21T05:56:39.339Z,14.40
2023-05-21T05:59:09.041Z,14.50
2023-05-21T06:01:35.682Z,14.50
2023-05-21T06:04:02.301Z,14.50
2023-05-21T06:06:28.970Z,14.50
2023-05-21T06:08:55.696Z,14.60
2023-05-21T06:11:22.696Z,14.70
2023-05-21T06:13:49.313Z,14.70
2023-05-21T06:16:16.099Z,14.80
2023-05-21T06:18:42.796Z,14.90
2023-05-21T06:21:09.475Z,14.80
2023-05-21T06:23:37.670Z,14.90
2023-05-21T06:26:04.830Z,15.00
2023-05-21T06:28:31.561Z,15.10
2023-05-21T06:30:58.194Z,15.00
2023-05-21T06:33:24.954Z,14.90
2023-05-21T06:35:51.762Z,15.10
2023-05-21T06:38:18.454Z,15.20
2023-05-21T06:40:47.391Z,15.40
2023-05-21T06:43:14.420Z,15.50
2023-05-21T06:45:41.420Z,15.50
2023-05-21T06:48:08.383Z,15.70
2023-05-21T06:50:35.093Z,15.80
2023-05-21T06:53:01.782Z,15.90
2023-05-21T06:55:28.591Z,15.60
2023-05-21T06:57:55.947Z,15.40
2023-05-21T07:00:22.731Z,15.50
2023-05-21T07:02:49.493Z,15.40
2023-05-21T07:05:16.337Z,15.80
2023-05-21T07:07:43.052Z,15.90
2023-05-21T07:10:10.209Z,15.80
2023-05-21T07:12:36.989Z,15.70
2023-05-21T07:15:03.940Z,15.60
2023-05-21T07:17:30.843Z,15.50
2023-05-21T07:19:57.541Z,15.60
2023-05-21T07:22:25.962Z,15.60
2023-05-21T07:24:54.015Z,15.80
2023-05-21T07:27:25.941Z,15.80
2023-05-21T07:29:53.018Z,15.80
2023-05-21T07:32:19.667Z,15.90
2023-05-21T07:34:47.049Z,16.00
2023-05-21T07:37:14.025Z,16.20
2023-05-21T07:39:40.846Z,16.10
2023-05-21T07:42:07.538Z,15.90
2023-05-21T07:44:34.163Z,15.90
2023-05-21T07:47:00.776Z,16.00
2023-05-21T07:49:27.485Z,16.00
2023-05-21T07:51:54.132Z,16.10
2023-05-21T07:54:20.966Z,16.30
2023-05-21T07:56:47.603Z,16.30
2023-05-21T07:59:17.026Z,16.20
2023-05-21T08:01:44.121Z,16.30
2023-05-21T08:04:11.123Z,16.30
2023-05-21T08:06:37.887Z,16.20
2023-05-21T08:09:06.184Z,16.20
2023-05-21T08:11:33.117Z,16.30
2023-05-21T08:14:00.114Z,16.40
2023-05-21T08:16:27.143Z,16.30
2023-05-21T08:18:53.908Z,16.40
2023-05-21T08:21:20.914Z,16.40
2023-05-21T08:23:47.565Z,16.70
2023-05-21T08:26:16.397Z,16.70
2023-05-21T08:28:43.480Z,16.80
2023-05-21T08:31:10.178Z,16.80
2023-05-21T08:33:39.676Z,16.70
2023-05-21T08:36:06.870Z,16.70
2023-05-21T08:38:34.418Z,16.70
2023-05-21T08:41:01.260Z,17.00
2023-05-21T08:43:28.437Z,16.90
2023-05-21T08:45:57.171Z,16.90
2023-05-21T08:48:24.663Z,16.70
2023-05-21T08:50:54.872Z,16.90
2023-05-21T08:53:29.030Z,16.80
2023-05-21T08:55:57.270Z,16.80
2023-05-21T08:58:24.394Z,17.00
2023-05-21T09:00:51.303Z,17.00
2023-05-21T09:03:18.099Z,16.90
2023-05-21T09:05:45.964Z,17.00
2023-05-21T09:08:19.391Z,17.10
2023-05-21T09:10:50.245Z,17.10
2023-05-21T09:13:17.904Z,17.00
2023-05-21T09:15:45.832Z,17.20
2023-05-21T09:18:13.601Z,17.10
2023-05-21T09:20:40.882Z,17.10
2023-05-21T09:23:12.489Z,17.20
2023-05-21T09:25:39.703Z,17.40
2023-05-21T09:28:13.171Z,17.50
2023-05-21T09:30:45.599Z,17.40
2023-05-21T09:33:12.694Z,17.50
2023-05-21T09:35:46.796Z,17.70
2023-05-21T09:38:13.532Z,17.90
2023-05-21T09:40:45.603Z,17.90
2023-05-21T09:43:18.191Z,17.90
2023-05-21T09:45:55.995Z,17.90
2023-05-21T09:48:40.565Z,17.90
2023-05-21T09:51:15.820Z,18.00
2023-05-21T09:53:48.705Z,17.90
2023-05-21T09:56:15.540Z,18.00
2023-05-21T09:58:42.454Z,18.10
2023-05-21T10:01:11.158Z,18.10
2023-05-21T10:03:40.780Z,18.20
2023-05-21T10:06:11.542Z,18.20
2023-05-21T10:08:42.952Z,18.30
2023-05-21T10:11:11.134Z,18.40
2023-05-21T10:13:43.754Z,18.50
2023-05-21T10:16:10.997Z,18.40
2023-05-21T10:18:39.217Z,18.50
2023-05-21T10:21:07.387Z,18.60
2023-05-21T10:23:36.428Z,18.70
2023-05-21T10:26:04.075Z,18.60
2023-05-21T10:28:33.117Z,18.80
2023-05-21T10:31:00.267Z,18.80
2023-05-21T10:33:27.717Z,18.90
2023-05-21T10:35:58.155Z,18.80
2023-05-21T10:38:25.616Z,18.90
2023-05-21T10:40:53.640Z,19.20
2023-05-21T10:43:40.642Z,19.30
2023-05-21T10:46:29.341Z,19.40
2023-05-21T10:49:03.441Z,19.40
2023-05-21T10:51:56.351Z,19.40
2023-05-21T10:55:00.169Z,19.60
2023-05-21T10:57:53.983Z,19.80
2023-05-21T11:00:21.214Z,19.90
2023-05-21T11:02:52.838Z,19.80
2023-05-21T11:05:50.715Z,19.80
2023-05-21T11:08:37.147Z,19.50
2023-05-21T11:11:04.438Z,19.70
2023-05-21T11:13:48.999Z,19.60
2023-05-21T11:16:16.912Z,19.60
2023-05-21T11:18:46.387Z,19.80
2023-05-21T11:21:17.836Z,19.80
2023-05-21T11:23:58.587Z,19.80
2023-05-21T11:26:27.750Z,19.90
2023-05-21T11:29:06.535Z,19.90
2023-05-21T11:31:38.318Z,20.20
2023-05-21T11:34:11.291Z,20.30
2023-05-21T11:36:38.938Z,20.10
2023-05-21T11:39:15.251Z,20.10
2023-05-21T11:41:58.312Z,20.10
2023-05-21T11:44:44.788Z,20.20
2023-05-21T11:47:16.435Z,20.50
2023-05-21T11:49:43.475Z,20.90
2023-05-21T11:52:11.712Z,20.80
2023-05-21T11:54:46.070Z,20.90
2023-05-21T11:57:17.199Z,20.90
2023-05-21T11:59:44.223Z,21.10
2023-05-21T12:02:16.563Z,20.90
2023-05-21T12:04:44.746Z,20.90
2023-05-21T12:07:13.218Z,20.90
2023-05-21T12:09:47.121Z,20.70
2023-05-21T12:12:18.094Z,20.80
2023-05-21T12:14:48.949Z,21.00
2023-05-21T12:17:17.596Z,21.20
2023-05-21T12:19:46.199Z,21.40
2023-05-21T12:22:15.363Z,21.40
2023-05-21T12:24:43.756Z,21.50
2023-05-21T12:27:12.842Z,21.80
2023-05-21T12:29:42.324Z,22.00
2023-05-21T12:32:14.136Z,22.10
2023-05-21T12:34:45.050Z,22.20
2023-05-21T12:37:25.512Z,22.20
2023-05-21T12:39:57.807Z,22.40
2023-05-21T12:42:34.802Z,22.60
2023-05-21T12:45:09.154Z,22.60
2023-05-21T12:47:36.539Z,22.50
2023-05-21T12:50:08.085Z,22.70
2023-05-21T12:52:34.861Z,23.00
2023-05-21T12:55:01.630Z,22.90
2023-05-21T12:57:36.843Z,23.00
2023-05-21T13:00:06.785Z,23.20
2023-05-21T13:02:38.262Z,23.30
2023-05-21T13:05:07.133Z,23.50
2023-05-21T13:07:35.946Z,23.30
2023-05-21T13:10:03.135Z,23.30
2023-05-21T13:12:32.870Z,23.60
2023-05-21T13:15:02.708Z,23.90
2023-05-21T13:17:30.075Z,24.20
2023-05-21T13:20:13.575Z,24.30
2023-05-21T13:22:42.418Z,24.20
2023-05-21T13:25:11.170Z,23.80
2023-05-21T13:27:38.666Z,24.10
2023-05-21T13:30:06.859Z,24.50
2023-05-21T13:32:33.622Z,24.40
2023-05-21T13:35:00.497Z,24.60
2023-05-21T13:37:27.178Z,24.70
2023-05-21T13:39:53.855Z,24.50
2023-05-21T13:42:21.168Z,24.70
2023-05-21T13:44:48.627Z,24.60
2023-05-21T13:47:18.284Z,24.50
2023-05-21T13:49:44.996Z,24.70
2023-05-21T13:52:11.974Z,24.70
2023-05-21T13:54:38.597Z,24.70
2023-05-21T13:57:05.456Z,24.80
2023-05-21T13:59:33.865Z,24.90
2023-05-21T14:02:01.122Z,25.00
2023-05-21T14:04:28.078Z,25.30
2023-05-21T14:06:54.832Z,25.70
2023-05-21T14:09:23.256Z,26.00
2023-05-21T14:11:49.966Z,25.90
2023-05-21T14:14:18.964Z,25.90
2023-05-21T14:16:47.132Z,25.70
2023-05-21T14:19:14.154Z,25.80
2023-05-21T14:21:41.515Z,26.00
2023-05-21T14:24:08.276Z,26.20
2023-05-21T14:26:36.721Z,26.20
2023-05-21T14:29:03.367Z,26.30
2023-05-21T14:31:30.140Z,26.40
2023-05-21T14:33:57.070Z,26.50
2023-05-21T14:36:23.765Z,26.30
2023-05-21T14:38:50.560Z,26.40
2023-05-21T14:41:17.241Z,26.40
2023-05-21T14:43:43.878Z,26.40
2023-05-21T14:46:10.504Z,26.50
2023-05-21T14:48:37.298Z,26.90
2023-05-21T14:51:04.017Z,26.80
2023-05-21T14:53:30.787Z,27.20
2023-05-21T14:55:57.429Z,27.30
2023-05-21T14:58:24.097Z,27.00
2023-05-21T15:00:50.766Z,26.90
2023-05-21T15:03:17.650Z,27.10
2023-05-21T15:05:44.424Z,26.70
2023-05-21T15:08:11.160Z,26.90
2023-05-21T15:10:37.864Z,27.40
2023-05-21T15:13:04.550Z,27.50
2023-05-21T15:15:31.170Z,27.50
2023-05-21T15:17:58.011Z,27.50
2023-05-21T15:20:24.747Z,27.60
2023-05-21T15:22:53.483Z,27.50
2023-05-21T15:25:23.733Z,27.50
2023-05-21T15:27:50.693Z,27.30
2023-05-21T15:30:17.628Z,27.10
2023-05-21T15:32:44.327Z,26.70
2023-05-21T15:35:11.001Z,26.30
2023-05-21T15:37:37.773Z,26.00
2023-05-21T15:40:04.893Z,25.80
2023-05-21T15:42:31.772Z,25.80
2023-05-21T15:44:58.802Z,25.40
2023-05-21T15:47:25.547Z,25.60
2023-05-21T15:49:52.207Z,25.60
2023-05-21T15:52:19.958Z,25.40
2023-05-21T15:54:47.059Z,25.50
2023-05-21T15:57:13.719Z,25.60
2023-05-21T15:59:40.528Z,25.50
2023-05-21T16:02:08.087Z,25.40
2023-05-21T16:04:34.923Z,25.50
2023-05-21T16:07:01.712Z,25.50
2023-05-21T16:09:28.307Z,25.90
2023-05-21T16:11:54.963Z,26.10
2023-05-21T16:14:21.824Z,26.20
2023-05-21T16:16:48.499Z,26.20
2023-05-21T16:19:15.427Z,26.20
2023-05-21T16:21:42.097Z,26.20
2023-05-21T16:24:08.724Z,26.60
2023-05-21T16:26:35.376Z,26.70
2023-05-21T16:29:02.353Z,26.50
2023-05-21T16:31:29.218Z,26.00
2023-05-21T16:33:55.906Z,26.20
2023-05-21T16:36:22.562Z,26.20
2023-05-21T16:38:49.230Z,26.00
2023-05-21T16:41:16.117Z,25.80
2023-05-21T16:43:42.733Z,25.90
2023-05-21T16:46:09.817Z,25.60
2023-05-21T16:48:38.295Z,25.70
2023-05-21T16:51:05.052Z,25.80
2023-05-21T16:53:31.730Z,25.90
2023-05-21T16:55:58.787Z,25.70
2023-05-21T16:58:25.579Z,25.50
2023-05-21T17:00:52.261Z,25.40
2023-05-21T17:03:19.329Z,25.40
2023-05-21T17:05:45.994Z,25.30
2023-05-21T17:08:12.632Z,25.30
2023-05-21T17:10:39.319Z,25.20
2023-05-21T17:13:17.580Z,25.30
2023-05-21T17:15:44.851Z,25.10
2023-05-21T17:18:12.005Z,25.10
2023-05-21T17:20:39.126Z,25.00
2023-05-21T17:23:05.897Z,24.90
2023-05-21T17:25:34.420Z,25.00
2023-05-21T17:28:01.507Z,25.10
2023-05-21T17:30:28.164Z,25.20
2023-05-21T17:32:54.962Z,25.30
2023-05-21T17:35:21.660Z,25.10
2023-05-21T17:37:48.390Z,25.10
2023-05-21T17:40:15.306Z,24.90
2023-05-21T17:42:41.968Z,25.00
2023-05-21T17:45:08.898Z,25.20
2023-05-21T17:47:35.939Z,25.20
2023-05-21T17:50:02.730Z,25.10
2023-05-21T17:52:29.362Z,25.00
2023-05-21T17:54:56.214Z,25.10
2023-05-21T17:57:22.858Z,25.00
2023-05-21T17:59:49.535Z,24.90
2023-05-21T18:02:16.231Z,25.00
2023-05-21T18:04:42.889Z,25.00
2023-05-21T18:07:09.499Z,25.10
2023-05-21T18:09:36.153Z,25.00
2023-05-21T18:12:03.374Z,24.80
2023-05-21T18:14:30.036Z,24.80
2023-05-21T18:16:56.773Z,24.80
2023-05-21T18:19:23.601Z,24.70
2023-05-21T18:21:50.427Z,24.60
2023-05-21T18:24:17.062Z,24.20
2023-05-21T18:26:45.163Z,24.30
2023-05-21T18:29:12.978Z,24.20
2023-05-21T18:31:39.647Z,24.20
2023-05-21T18:34:06.338Z,24.20
2023-05-21T18:36:38.951Z,24.20
2023-05-21T18:39:09.760Z,24.10
2023-05-21T18:41:37.313Z,24.10
2023-05-21T18:44:05.763Z,24.00
2023-05-21T18:46:32.466Z,24.00
2023-05-21T18:48:59.889Z,23.80
2023-05-21T18:51:26.563Z,23.80
2023-05-21T18:53:53.222Z,23.70
2023-05-21T18:56:19.891Z,23.60
2023-05-21T18:58:47.468Z,23.50
2023-05-21T19:01:14.396Z,23.50
2023-05-21T19:03:41.090Z,23.50
2023-05-21T19:06:08.745Z,23.50
2023-05-21T19:08:35.354Z,23.50
2023-05-21T19:11:02.051Z,23.50
2023-05-21T19:13:29.364Z,23.50
2023-05-21T19:15:57.351Z,23.30
2023-05-21T19:18:30.085Z,23.30
2023-05-21T19:20:56.876Z,23.20
2023-05-21T19:23:24.561Z,23.20
2023-05-21T19:25:51.461Z,23.10
2023-05-21T19:28:18.671Z,23.10
2023-05-21T19:30:46.194Z,23.00
2023-05-21T19:33:13.511Z,23.00
2023-05-21T19:35:41.833Z,22.90
2023-05-21T19:38:10.745Z,22.80
2023-05-21T19:40:37.948Z,22.70
2023-05-21T19:43:04.909Z,22.60
2023-05-21T19:45:31.650Z,22.70
2023-05-21T19:47:59.582Z,22.60
2023-05-21T19:50:28.416Z,22.50
2023-05-21T19:52:58.390Z,22.40
2023-05-21T19:55:25.163Z,22.50
2023-05-21T19:57:51.899Z,22.50
2023-05-21T20:00:19.120Z,22.40
2023-05-21T20:02:46.228Z,22.40
2023-05-21T20:05:13.143Z,22.30
2023-05-21T20:07:39.936Z,22.20
2023-05-21T20:10:07.476Z,22.20
2023-05-21T20:12:34.149Z,22.30
2023-05-21T20:15:01.121Z,22.30
2023-05-21T20:17:28.762Z,22.30
2023-05-21T20:19:57.131Z,22.20
2023-05-21T20:22:23.778Z,22.00
2023-05-21T20:24:50.565Z,22.10
2023-05-21T20:27:19.484Z,22.00
2023-05-21T20:29:46.347Z,21.90
2023-05-21T20:32:13.303Z,21.80
2023-05-21T20:34:54.320Z,21.80
2023-05-21T20:37:28.886Z,21.80
2023-05-21T20:39:58.560Z,21.80
2023-05-21T20:42:28.464Z,21.80
2023-05-21T20:44:55.378Z,21.70
2023-05-21T20:47:23.292Z,21.50
2023-05-21T20:49:53.567Z,21.40
2023-05-21T20:52:20.690Z,21.50
2023-05-21T20:54:48.787Z,21.50
2023-05-21T20:57:15.931Z,21.40
2023-05-21T20:59:43.051Z,21.40
2023-05-21T21:02:14.030Z,21.40
2023-05-21T21:04:42.141Z,21.30
2023-05-21T21:07:09.947Z,21.40
2023-05-21T21:09:37.176Z,21.20
2023-05-21T21:12:14.459Z,21.10
2023-05-21T21:14:50.955Z,21.10
2023-05-21T21:17:17.604Z,20.90
2023-05-21T21:19:44.216Z,20.90
2023-05-21T21:22:10.961Z,21.10
2023-05-21T21:24:37.576Z,21.10
2023-05-21T21:27:04.634Z,21.20
2023-05-21T21:29:31.257Z,21.10
2023-05-21T21:31:57.945Z,21.10
2023-05-21T21:34:25.168Z,21.10
2023-05-21T21:36:51.826Z,20.90
2023-05-21T21:39:18.602Z,21.00
2023-05-21T21:41:45.788Z,20.90
2023-05-21T21:44:12.563Z,20.90
2023-05-21T21:46:39.370Z,20.90
2023-05-21T21:49:06.055Z,20.80
2023-05-21T21:51:33.984Z,20.70
2023-05-21T21:54:00.663Z,20.80
2023-05-21T21:56:27.298Z,20.80
2023-05-21T21:58:53.913Z,20.80
2023-05-21T22:01:20.716Z,20.80
2023-05-21T22:03:47.429Z,20.70
2023-05-21T22:06:14.043Z,20.70
2023-05-21T22:08:40.772Z,20.60
2023-05-21T22:11:07.451Z,20.50
2023-05-21T22:13:34.344Z,20.50
2023-05-21T22:16:01.894Z,20.50
2023-05-21T22:18:40.357Z,20.40
2023-05-21T22:21:10.151Z,20.40
2023-05-21T22:23:37.845Z,20.40
2023-05-21T22:26:04.701Z,20.30
2023-05-21T22:28:31.324Z,20.30
2023-05-21T22:30:58.693Z,20.30
2023-05-21T22:33:26.477Z,20.30
2023-05-21T22:35:54.078Z,20.20
2023-05-21T22:38:20.774Z,20.30
2023-05-21T22:40:47.513Z,20.30
2023-05-21T22:43:14.269Z,20.30
2023-05-21T22:45:40.994Z,20.20
2023-05-21T22:48:09.198Z,20.10
2023-05-21T22:50:38.184Z,20.30
2023-05-21T22:53:05.252Z,20.20
2023-05-21T22:55:31.864Z,20.20
2023-05-21T22:57:58.505Z,20.20
2023-05-21T23:00:26.029Z,20.10
2023-05-21T23:02:54.479Z,20.00
2023-05-21T23:05:22.308Z,20.10
2023-05-21T23:07:49.372Z,20.00
2023-05-21T23:10:16.120Z,20.00
2023-05-21T23:12:42.812Z,20.00
2023-05-21T23:15:10.623Z,20.10
2023-05-21T23:17:38.009Z,20.00
2023-05-21T23:20:11.232Z,20.00
2023-05-21T23:22:38.078Z,19.90
2023-05-21T23:25:05.584Z,20.00
2023-05-21T23:27:32.383Z,19.90
2023-05-21T23:29:59.023Z,19.90
2023-05-21T23:32:25.805Z,19.90
2023-05-21T23:34:52.498Z,19.90
2023-05-21T23:37:19.332Z,19.70
2023-05-21T23:39:49.341Z,19.80
2023-05-21T23:42:17.154Z,19.70
2023-05-21T23:44:43.884Z,19.60
2023-05-21T23:47:10.635Z,19.60
2023-05-21T23:49:37.362Z,19.60
2023-05-21T23:52:05.695Z,19.60
2023-05-21T23:54:32.365Z,19.50
2023-05-21T23:56:58.979Z,19.60
2023-05-21T23:59:25.781Z,19.60
